createdAt,value
2023-02-16T00:01:49.349Z,38.05
2023-02-16T00:04:29.416Z,37.50
2023-02-16T00:06:57.038Z,42.00
2023-02-16T00:09:24.639Z,40.80
2023-02-16T00:12:11.287Z,42.08
2023-02-16T00:14:39.216Z,40.63
2023-02-16T00:17:06.592Z,39.10
2023-02-16T00:22:14.765Z,41.90
2023-02-16T00:24:41.332Z,41.22
2023-02-16T00:27:16.209Z,42.83
2023-02-16T00:29:44.788Z,41.70
2023-02-16T00:32:12.815Z,40.92
2023-02-16T00:38:47.540Z,42.70
2023-02-16T00:41:43.688Z,42.62
2023-02-16T00:44:29.271Z,42.05
2023-02-16T00:46:55.941Z,42.88
2023-02-16T00:49:22.773Z,43.47
2023-02-16T00:51:50.197Z,43.65
2023-02-16T00:54:27.517Z,43.65
2023-02-16T00:57:18.112Z,42.80
2023-02-16T00:59:46.712Z,43.75
2023-02-16T01:02:14.753Z,43.67
2023-02-16T01:05:47.853Z,45.38
2023-02-16T01:08:37.917Z,46.90
2023-02-16T01:11:07.469Z,44.75
2023-02-16T01:14:03.100Z,46.40
2023-02-16T01:16:38.801Z,44.67
2023-02-16T01:19:05.454Z,45.40
2023-02-16T01:21:32.409Z,42.88
2023-02-16T01:23:59.215Z,44.00
2023-02-16T01:26:26.159Z,41.65
2023-02-16T01:28:52.763Z,43.42
2023-02-16T01:31:19.464Z,40.55
2023-02-16T01:37:16.675Z,42.20
2023-02-16T01:39:43.302Z,40.50
2023-02-16T01:42:15.881Z,40.58
2023-02-16T01:44:52.710Z,41.75
2023-02-16T01:47:40.160Z,41.40
2023-02-16T01:50:19.886Z,42.20
2023-02-16T01:53:24.539Z,39.22
2023-02-16T01:55:58.837Z,38.40
2023-02-16T01:58:50.679Z,37.65
2023-02-16T02:01:35.914Z,38.20
2023-02-16T02:08:22.505Z,36.88
2023-02-16T02:11:27.494Z,35.05
2023-02-16T02:14:08.520Z,36.22
2023-02-16T02:16:35.552Z,33.50
2023-02-16T02:19:02.129Z,36.22
2023-02-16T02:24:22.760Z,34.55
2023-02-16T02:26:58.354Z,35.42
2023-02-16T02:29:55.766Z,34.13
2023-02-16T02:36:34.453Z,33.75
2023-02-16T02:39:12.758Z,34.33
2023-02-16T02:42:07.832Z,33.13
2023-02-16T02:45:18.755Z,34.35
2023-02-16T02:47:47.541Z,31.23
2023-02-16T02:53:43.752Z,32.58
2023-02-16T02:56:32.713Z,31.85
2023-02-16T02:59:23.463Z,32.42
2023-02-16T03:02:33.795Z,32.65
2023-02-16T03:05:27.643Z,31.52
2023-02-16T03:08:06.394Z,31.60
2023-02-16T03:10:55.222Z,31.98
2023-02-16T03:13:26.241Z,31.42
2023-02-16T03:15:56.005Z,32.33
2023-02-16T03:18:44.788Z,33.25
2023-02-16T03:21:33.114Z,30.85
2023-02-16T03:24:22.006Z,30.83
2023-02-16T03:27:09.442Z,30.42
2023-02-16T03:29:37.750Z,31.30
2023-02-16T03:32:32.351Z,31.15
2023-02-16T03:35:24.599Z,30.75
2023-02-16T03:37:51.196Z,31.42
2023-02-16T03:40:30.259Z,30.70
2023-02-16T03:43:00.257Z,31.33
2023-02-16T03:45:27.629Z,29.95
2023-02-16T03:47:55.082Z,30.05
2023-02-16T03:53:07.623Z,32.15
2023-02-16T03:55:36.950Z,31.08
2023-02-16T03:58:08.036Z,31.48
2023-02-16T04:00:35.986Z,29.63
2023-02-16T04:03:03.628Z,30.62
2023-02-16T04:06:04.417Z,30.83
2023-02-16T04:09:01.892Z,30.12
2023-02-16T04:11:53.335Z,36.50
2023-02-16T04:14:19.932Z,33.28
2023-02-16T04:16:46.553Z,33.75
2023-02-16T04:19:13.637Z,36.05
2023-02-16T04:21:40.281Z,38.72
2023-02-16T04:26:56.828Z,32.67
2023-02-16T04:29:23.437Z,32.72
2023-02-16T04:31:50.128Z,31.83
2023-02-16T04:34:35.846Z,31.65
2023-02-16T04:37:02.950Z,33.22
2023-02-16T04:39:29.522Z,32.05
2023-02-16T04:45:49.825Z,33.58
2023-02-16T04:48:16.440Z,32.60
2023-02-16T04:50:43.193Z,32.35
2023-02-16T04:53:09.744Z,33.63
2023-02-16T04:55:36.285Z,32.95
2023-02-16T04:58:02.842Z,34.80
2023-02-16T05:00:38.538Z,31.92
2023-02-16T05:03:05.115Z,34.33
2023-02-16T05:05:31.781Z,32.83
2023-02-16T05:07:58.344Z,32.40
2023-02-16T05:11:24.841Z,32.92
2023-02-16T05:14:41.773Z,42.70
2023-02-16T05:17:15.167Z,75.37
2023-02-16T05:19:43.420Z,76.37
2023-02-16T05:22:11.383Z,65.40
2023-02-16T05:24:38.316Z,56.53
2023-02-16T05:27:07.954Z,60.33
2023-02-16T05:29:58.309Z,50.45
2023-02-16T05:32:25.907Z,44.22
2023-02-16T05:34:52.462Z,40.53
2023-02-16T05:37:19.286Z,36.22
2023-02-16T05:40:35.659Z,34.55
2023-02-16T05:43:46.608Z,33.78
2023-02-16T05:46:13.226Z,31.55
2023-02-16T05:48:39.773Z,31.23
2023-02-16T05:51:06.533Z,35.63
2023-02-16T05:53:33.194Z,33.30
2023-02-16T05:55:59.756Z,32.60
2023-02-16T05:58:26.368Z,30.27
2023-02-16T06:00:53.535Z,33.03
2023-02-16T06:03:20.088Z,33.70
2023-02-16T06:05:46.789Z,32.38
2023-02-16T06:08:13.388Z,30.90
2023-02-16T06:10:40.084Z,35.80
2023-02-16T06:13:06.621Z,42.97
2023-02-16T06:15:33.486Z,42.65
2023-02-16T06:18:00.046Z,43.85
2023-02-16T06:20:26.705Z,46.33
2023-02-16T06:22:53.245Z,45.28
2023-02-16T06:25:20.310Z,46.20
2023-02-16T06:27:46.863Z,46.55
2023-02-16T06:30:13.724Z,46.55
2023-02-16T06:32:40.753Z,45.95
2023-02-16T06:35:07.684Z,47.28
2023-02-16T06:37:34.281Z,45.53
2023-02-16T06:40:00.850Z,46.13
2023-02-16T06:42:27.438Z,45.00
2023-02-16T06:44:54.039Z,43.75
2023-02-16T06:47:20.726Z,43.92
2023-02-16T06:49:47.292Z,45.85
2023-02-16T06:52:15.004Z,43.50
2023-02-16T06:54:41.584Z,44.08
2023-02-16T06:57:08.150Z,51.42
2023-02-16T06:59:36.775Z,52.05
2023-02-16T07:02:03.659Z,55.10
2023-02-16T07:04:30.230Z,52.58
2023-02-16T07:06:56.783Z,53.15
2023-02-16T07:09:23.514Z,50.47
2023-02-16T07:11:50.197Z,51.65
2023-02-16T07:14:16.836Z,53.60
2023-02-16T07:16:43.418Z,52.17
2023-02-16T07:19:10.029Z,57.20
2023-02-16T07:21:36.687Z,57.20
2023-02-16T07:24:03.800Z,55.40
2023-02-16T07:26:30.409Z,59.67
2023-02-16T07:28:57.012Z,57.62
2023-02-16T07:31:26.463Z,60.78
2023-02-16T07:33:53.347Z,64.60
2023-02-16T07:36:19.890Z,65.65
2023-02-16T07:38:46.438Z,64.65
2023-02-16T07:41:13.508Z,63.72
2023-02-16T07:43:42.765Z,67.97
2023-02-16T07:46:09.422Z,64.87
2023-02-16T07:48:36.090Z,63.25
2023-02-16T07:51:03.093Z,66.95
2023-02-16T07:53:29.890Z,68.12
2023-02-16T07:55:57.168Z,68.03
2023-02-16T07:58:29.728Z,66.65
2023-02-16T08:01:05.961Z,64.82
2023-02-16T08:03:32.758Z,65.12
2023-02-16T08:06:03.868Z,65.45
2023-02-16T08:08:31.072Z,65.75
2023-02-16T08:10:57.815Z,61.75
2023-02-16T08:13:24.782Z,65.35
2023-02-16T08:16:39.835Z,67.78
2023-02-16T08:19:19.461Z,67.03
2023-02-16T08:21:49.621Z,68.28
2023-02-16T08:24:16.266Z,67.72
2023-02-16T08:26:44.690Z,69.35
2023-02-16T08:29:14.865Z,70.18
2023-02-16T08:31:41.835Z,70.82
2023-02-16T08:34:11.233Z,67.07
2023-02-16T08:36:40.099Z,65.60
2023-02-16T08:39:16.381Z,67.03
2023-02-16T08:41:44.423Z,66.45
2023-02-16T08:44:10.976Z,66.05
2023-02-16T08:46:40.021Z,64.40
2023-02-16T08:49:08.093Z,63.25
2023-02-16T08:51:38.540Z,61.13
2023-02-16T08:54:08.697Z,59.42
2023-02-16T08:56:35.743Z,58.47
2023-02-16T08:59:02.512Z,59.15
2023-02-16T09:01:29.437Z,59.95
2023-02-16T09:03:56.268Z,58.92
2023-02-16T09:06:23.037Z,57.72
2023-02-16T09:08:54.675Z,56.00
2023-02-16T09:11:22.433Z,57.42
2023-02-16T09:13:50.504Z,56.20
2023-02-16T09:16:24.980Z,55.35
2023-02-16T09:18:53.006Z,55.00
2023-02-16T09:21:25.580Z,54.50
2023-02-16T09:23:55.840Z,53.05
2023-02-16T09:26:24.983Z,53.25
2023-02-16T09:28:53.346Z,51.25
2023-02-16T09:31:27.281Z,52.62
2023-02-16T09:33:56.255Z,51.20
2023-02-16T09:36:23.460Z,50.00
2023-02-16T09:38:51.405Z,48.78
2023-02-16T09:41:41.969Z,49.63
2023-02-16T09:44:33.050Z,48.17
2023-02-16T09:47:03.387Z,49.35
2023-02-16T09:49:38.960Z,46.42
2023-02-16T09:52:16.675Z,47.55
2023-02-16T09:54:53.138Z,47.17
2023-02-16T09:57:41.282Z,47.75
2023-02-16T10:00:33.257Z,45.88
2023-02-16T10:03:18.566Z,45.42
2023-02-16T10:06:10.705Z,44.72
2023-02-16T10:08:43.420Z,44.03
2023-02-16T10:11:40.677Z,43.35
2023-02-16T10:14:49.770Z,43.65
2023-02-16T10:17:37.738Z,42.95
2023-02-16T10:20:13.293Z,43.97
2023-02-16T10:22:49.112Z,43.70
2023-02-16T10:25:24.141Z,42.53
2023-02-16T10:28:16.533Z,41.28
2023-02-16T10:30:57.579Z,38.22
2023-02-16T10:33:43.657Z,41.25
2023-02-16T10:36:22.063Z,39.08
2023-02-16T10:39:02.103Z,35.10
2023-02-16T10:41:44.217Z,37.97
2023-02-16T10:44:22.443Z,35.38
2023-02-16T10:46:57.245Z,35.40
2023-02-16T10:49:25.752Z,36.70
2023-02-16T10:51:53.618Z,35.72
2023-02-16T10:54:25.554Z,39.35
2023-02-16T10:57:01.119Z,36.28
2023-02-16T10:59:44.258Z,37.85
2023-02-16T11:02:24.432Z,40.28
2023-02-16T11:04:52.970Z,42.47
2023-02-16T11:07:28.330Z,40.75
2023-02-16T11:09:58.450Z,40.17
2023-02-16T11:12:29.613Z,40.17
2023-02-16T11:15:16.565Z,39.00
2023-02-16T11:18:04.923Z,41.37
2023-02-16T11:20:50.299Z,39.63
2023-02-16T11:23:32.193Z,41.10
2023-02-16T11:26:06.304Z,40.72
2023-02-16T11:28:43.051Z,42.38
2023-02-16T11:31:09.607Z,44.80
2023-02-16T11:33:38.084Z,42.45
2023-02-16T11:36:19.957Z,43.60
2023-02-16T11:39:23.444Z,42.28
2023-02-16T11:41:57.379Z,40.00
2023-02-16T11:44:32.886Z,39.08
2023-02-16T11:47:07.984Z,38.55
2023-02-16T11:49:38.455Z,38.70
2023-02-16T11:52:21.034Z,37.97
2023-02-16T11:54:59.983Z,38.20
2023-02-16T11:57:32.087Z,34.35
2023-02-16T12:00:00.319Z,31.27
2023-02-16T12:02:45.133Z,34.03
2023-02-16T12:05:31.745Z,31.62
2023-02-16T12:08:24.804Z,30.12
2023-02-16T12:11:09.458Z,25.48
2023-02-16T12:13:36.275Z,26.15
2023-02-16T12:16:21.140Z,26.92
2023-02-16T12:19:12.367Z,24.52
2023-02-16T12:21:50.116Z,26.20
2023-02-16T12:24:46.684Z,26.02
2023-02-16T12:27:13.184Z,25.00
2023-02-16T12:30:08.350Z,26.08
2023-02-16T12:32:51.312Z,25.52
2023-02-16T12:35:48.952Z,24.90
2023-02-16T12:38:28.652Z,26.65
2023-02-16T12:41:14.543Z,25.37
2023-02-16T12:43:48.794Z,24.50
2023-02-16T12:46:29.342Z,24.02
2023-02-16T12:49:12.736Z,24.58
2023-02-16T12:51:47.244Z,22.85
2023-02-16T12:54:21.034Z,23.15
2023-02-16T12:56:54.662Z,20.83
2023-02-16T12:59:47.099Z,22.58
2023-02-16T13:02:44.575Z,23.30
2023-02-16T13:05:18.147Z,22.80
2023-02-16T13:07:56.631Z,22.00
2023-02-16T13:10:41.711Z,22.30
2023-02-16T13:13:17.771Z,20.80
2023-02-16T13:15:52.973Z,20.62
2023-02-16T13:18:28.516Z,21.95
2023-02-16T13:21:02.495Z,22.40
2023-02-16T13:23:50.666Z,23.30
2023-02-16T13:26:28.804Z,21.85
2023-02-16T13:28:58.541Z,21.77
2023-02-16T13:31:53.582Z,21.87
2023-02-16T13:34:36.320Z,22.83
2023-02-16T13:37:30.562Z,21.92
2023-02-16T13:40:12.437Z,22.25
2023-02-16T13:42:58.315Z,22.48
2023-02-16T13:45:32.053Z,22.23
2023-02-16T13:47:58.991Z,21.52
2023-02-16T13:50:31.435Z,22.48
2023-02-16T13:53:11.576Z,24.10
2023-02-16T13:55:40.239Z,23.10
2023-02-16T13:58:27.126Z,23.48
2023-02-16T14:00:53.957Z,22.37
2023-02-16T14:03:21.103Z,20.85
2023-02-16T14:05:53.010Z,23.90
2023-02-16T14:08:22.238Z,23.73
2023-02-16T14:10:55.033Z,23.38
2023-02-16T14:13:36.470Z,22.50
2023-02-16T14:16:25.276Z,22.50
2023-02-16T14:19:01.504Z,23.02
2023-02-16T14:21:44.780Z,22.20
2023-02-16T14:26:55.609Z,23.23
2023-02-16T14:29:53.765Z,22.52
2023-02-16T14:32:30.792Z,22.17
2023-02-16T14:35:08.167Z,21.25
2023-02-16T14:37:39.498Z,23.27
2023-02-16T14:40:17.257Z,22.08
2023-02-16T14:42:51.398Z,20.67
2023-02-16T14:45:55.262Z,21.87
2023-02-16T14:48:43.589Z,22.50
2023-02-16T14:51:13.536Z,24.02
2023-02-16T14:53:49.277Z,22.70
2023-02-16T14:56:16.795Z,23.33
2023-02-16T14:59:01.984Z,23.67
2023-02-16T15:01:28.603Z,23.55
2023-02-16T15:03:58.082Z,21.73
2023-02-16T15:06:46.103Z,22.80
2023-02-16T15:09:23.449Z,23.15
2023-02-16T15:12:12.138Z,23.40
2023-02-16T15:14:49.091Z,23.08
2023-02-16T15:17:39.054Z,23.98
2023-02-16T15:20:19.767Z,23.42
2023-02-16T15:23:23.101Z,22.92
2023-02-16T15:26:19.950Z,23.42
2023-02-16T15:28:56.591Z,23.90
2023-02-16T15:31:33.354Z,23.73
2023-02-16T15:34:07.548Z,24.92
2023-02-16T15:36:37.331Z,22.95
2023-02-16T15:39:13.487Z,24.85
2023-02-16T15:41:45.978Z,22.87
2023-02-16T15:44:34.507Z,25.08
2023-02-16T15:47:16.573Z,24.75
2023-02-16T15:49:43.772Z,25.50
2023-02-16T15:52:21.576Z,24.70
2023-02-16T15:54:48.994Z,25.05
2023-02-16T15:57:32.161Z,27.48
2023-02-16T16:02:41.441Z,27.30
2023-02-16T16:05:21.913Z,27.62
2023-02-16T16:07:49.348Z,26.75
2023-02-16T16:10:25.026Z,27.05
2023-02-16T16:12:56.345Z,29.42
2023-02-16T16:15:25.226Z,30.00
2023-02-16T16:17:53.661Z,27.58
2023-02-16T16:20:26.116Z,29.17
2023-02-16T16:23:21.374Z,31.33
2023-02-16T16:25:49.164Z,30.80
2023-02-16T16:28:27.642Z,32.80
2023-02-16T16:31:16.051Z,32.92
2023-02-16T16:34:01.455Z,34.25
2023-02-16T16:36:35.515Z,33.95
2023-02-16T16:39:25.422Z,32.28
2023-02-16T16:41:57.828Z,30.52
2023-02-16T16:44:45.462Z,31.40
2023-02-16T16:47:29.247Z,38.03
2023-02-16T16:50:06.902Z,41.28
2023-02-16T16:52:43.168Z,50.47
2023-02-16T16:55:21.698Z,38.47
2023-02-16T16:57:50.311Z,33.53
2023-02-16T17:00:18.356Z,34.42
2023-02-16T17:02:45.520Z,34.03
2023-02-16T17:05:12.298Z,32.50
2023-02-16T17:07:39.234Z,38.53
2023-02-16T17:10:06.527Z,37.47
2023-02-16T17:12:33.528Z,37.22
2023-02-16T17:15:01.809Z,42.08
2023-02-16T17:17:28.521Z,44.90
2023-02-16T17:19:55.132Z,44.08
2023-02-16T17:22:21.745Z,40.42
2023-02-16T17:24:48.442Z,41.17
2023-02-16T17:27:15.115Z,41.20
2023-02-16T17:29:43.121Z,40.17
2023-02-16T17:32:09.878Z,42.97
2023-02-16T17:34:36.502Z,42.45
2023-02-16T17:37:09.286Z,45.58
2023-02-16T17:42:02.631Z,43.95
2023-02-16T17:44:29.302Z,42.50
2023-02-16T17:46:56.256Z,42.80
2023-02-16T17:49:22.827Z,40.55
2023-02-16T17:51:49.413Z,38.42
2023-02-16T17:54:16.135Z,39.88
2023-02-16T17:56:48.286Z,41.72
2023-02-16T17:59:15.511Z,43.20
2023-02-16T18:01:45.400Z,45.63
2023-02-16T18:04:12.044Z,42.92
2023-02-16T18:06:38.655Z,46.03
2023-02-16T18:09:05.278Z,43.47
2023-02-16T18:11:31.886Z,46.95
2023-02-16T18:13:58.494Z,50.70
2023-02-16T18:16:26.840Z,49.78
2023-02-16T18:18:53.635Z,49.25
2023-02-16T18:21:25.793Z,45.40
2023-02-16T18:23:52.361Z,46.60
2023-02-16T18:26:19.029Z,44.78
2023-02-16T18:28:45.703Z,44.13
2023-02-16T18:31:13.059Z,42.40
2023-02-16T18:33:39.876Z,41.30
2023-02-16T18:36:07.090Z,42.17
2023-02-16T18:38:33.897Z,46.35
2023-02-16T18:41:00.488Z,44.13
2023-02-16T18:43:27.099Z,40.53
2023-02-16T18:45:53.718Z,39.45
2023-02-16T18:48:20.392Z,38.22
2023-02-16T18:50:46.992Z,42.42
2023-02-16T18:53:16.197Z,41.37
2023-02-16T18:55:43.153Z,45.80
2023-02-16T18:58:11.586Z,39.28
2023-02-16T19:00:41.567Z,38.85
2023-02-16T19:03:08.639Z,38.58
2023-02-16T19:05:35.270Z,39.47
2023-02-16T19:08:01.883Z,37.40
2023-02-16T19:10:28.479Z,37.55
2023-02-16T19:12:55.033Z,34.70
2023-02-16T19:15:21.846Z,35.88
2023-02-16T19:17:50.846Z,34.53
2023-02-16T19:20:18.648Z,34.90
2023-02-16T19:22:50.553Z,37.03
2023-02-16T19:25:17.233Z,36.50
2023-02-16T19:27:47.128Z,35.95
2023-02-16T19:30:13.798Z,36.30
2023-02-16T19:32:41.180Z,34.65
2023-02-16T19:35:11.191Z,35.88
2023-02-16T19:37:37.868Z,37.08
2023-02-16T19:40:08.727Z,38.97
2023-02-16T19:42:35.763Z,36.60
2023-02-16T19:45:02.474Z,38.05
2023-02-16T19:47:29.134Z,40.40
2023-02-16T19:49:55.836Z,42.00
2023-02-16T19:52:22.542Z,41.15
2023-02-16T19:54:49.495Z,38.30
2023-02-16T19:57:16.159Z,38.15
2023-02-16T19:59:42.852Z,36.22
2023-02-16T20:02:13.089Z,36.70
2023-02-16T20:04:39.858Z,34.55
2023-02-16T20:07:08.232Z,34.85
2023-02-16T20:09:36.134Z,35.80
2023-02-16T20:12:03.440Z,38.08
2023-02-16T20:14:30.004Z,35.60
2023-02-16T20:16:56.632Z,36.45
2023-02-16T20:19:24.382Z,35.28
2023-02-16T20:21:50.986Z,35.75
2023-02-16T20:24:18.088Z,35.50
2023-02-16T20:26:49.003Z,34.70
2023-02-16T20:29:18.628Z,35.67
2023-02-16T20:31:59.954Z,34.03
2023-02-16T20:34:27.549Z,34.00
2023-02-16T20:37:00.237Z,33.75
2023-02-16T20:39:26.849Z,34.97
2023-02-16T20:41:53.556Z,36.30
2023-02-16T20:44:20.300Z,39.72
2023-02-16T20:46:46.888Z,38.35
2023-02-16T20:49:13.683Z,35.95
2023-02-16T20:51:41.338Z,35.47
2023-02-16T20:54:14.245Z,35.80
2023-02-16T20:56:40.840Z,36.75
2023-02-16T20:59:09.958Z,35.75
2023-02-16T21:01:49.517Z,36.53
2023-02-16T21:04:18.815Z,38.33
2023-02-16T21:06:45.406Z,36.92
2023-02-16T21:09:12.411Z,34.55
2023-02-16T21:11:40.049Z,34.40
2023-02-16T21:14:08.512Z,33.85
2023-02-16T21:16:35.372Z,33.90
2023-02-16T21:19:04.090Z,33.42
2023-02-16T21:21:32.086Z,32.20
2023-02-16T21:23:58.896Z,33.03
2023-02-16T21:26:25.721Z,30.95
2023-02-16T21:28:53.225Z,31.87
2023-02-16T21:31:22.430Z,33.50
2023-02-16T21:33:49.867Z,30.73
2023-02-16T21:36:23.413Z,31.00
2023-02-16T21:38:49.994Z,28.12
2023-02-16T21:41:25.498Z,28.12
2023-02-16T21:44:04.604Z,29.92
2023-02-16T21:46:39.854Z,28.55
2023-02-16T21:49:17.512Z,29.12
2023-02-16T21:51:45.127Z,27.17
2023-02-16T21:54:15.328Z,27.50
2023-02-16T21:56:44.593Z,26.90
2023-02-16T21:59:29.266Z,28.00
2023-02-16T22:04:48.993Z,27.00
2023-02-16T22:07:15.551Z,27.80
2023-02-16T22:09:42.576Z,28.33
2023-02-16T22:12:09.213Z,27.65
2023-02-16T22:14:36.179Z,27.30
2023-02-16T22:17:04.297Z,29.02
2023-02-16T22:19:30.853Z,27.87
2023-02-16T22:21:57.761Z,30.05
2023-02-16T22:24:24.364Z,31.08
2023-02-16T22:26:51.545Z,29.08
2023-02-16T22:29:46.384Z,30.52
2023-02-16T22:32:37.066Z,29.40
2023-02-16T22:35:12.920Z,31.15
2023-02-16T22:37:39.504Z,32.25
2023-02-16T22:40:06.689Z,31.40
2023-02-16T22:42:33.340Z,32.83
2023-02-16T22:44:59.916Z,33.22
2023-02-16T22:47:26.467Z,31.35
2023-02-16T22:50:08.521Z,31.92
2023-02-16T22:52:37.174Z,30.73
2023-02-16T22:55:05.672Z,33.78
2023-02-16T22:57:36.875Z,31.73
2023-02-16T23:00:25.009Z,31.73
2023-02-16T23:03:12.974Z,32.45
2023-02-16T23:05:41.395Z,32.25
2023-02-16T23:08:09.407Z,30.77
2023-02-16T23:10:37.797Z,30.65
2023-02-16T23:13:06.429Z,30.15
2023-02-16T23:15:34.917Z,31.55
2023-02-16T23:18:10.713Z,31.45
2023-02-16T23:20:37.394Z,31.60
2023-02-16T23:23:05.529Z,32.05
2023-02-16T23:25:35.183Z,32.22
2023-02-16T23:28:11.638Z,31.77
2023-02-16T23:30:43.629Z,31.23
2023-02-16T23:33:28.574Z,32.65
2023-02-16T23:35:55.851Z,33.08
2023-02-16T23:38:22.817Z,33.08
2023-02-16T23:40:56.732Z,31.05
2023-02-16T23:43:23.670Z,32.28
2023-02-16T23:45:50.264Z,31.73
2023-02-16T23:48:23.362Z,32.45
2023-02-16T23:53:18.362Z,31.85
2023-02-16T23:55:45.156Z,30.27
